sensor_id;sensor_type;location;lat;lon;timestamp;temperature;humidity
26703;DHT22;14316;51.074;3.704;2023-04-03T00:01:17;5.00;99.90
26703;DHT22;14316;51.074;3.704;2023-04-03T00:03:43;5.00;99.90
26703;DHT22;14316;51.074;3.704;2023-04-03T00:06:10;5.00;99.90
26703;DHT22;14316;51.074;3.704;2023-04-03T00:08:38;5.00;99.90
26703;DHT22;14316;51.074;3.704;2023-04-03T00:11:05;5.00;99.90
26703;DHT22;14316;51.074;3.704;2023-04-03T00:13:32;5.00;99.90
26703;DHT22;14316;51.074;3.704;2023-04-03T00:15:58;5.00;99.90
26703;DHT22;14316;51.074;3.704;2023-04-03T00:18:25;5.00;99.90
26703;DHT22;14316;51.074;3.704;2023-04-03T00:20:51;5.00;99.90
26703;DHT22;14316;51.074;3.704;2023-04-03T00:23:17;5.00;99.90
26703;DHT22;14316;51.074;3.704;2023-04-03T00:25:44;5.00;99.90
26703;DHT22;14316;51.074;3.704;2023-04-03T00:28:10;5.00;99.90
26703;DHT22;14316;51.074;3.704;2023-04-03T00:30:36;5.00;99.90
26703;DHT22;14316;51.074;3.704;2023-04-03T00:33:02;5.00;99.90
26703;DHT22;14316;51.074;3.704;2023-04-03T00:35:28;5.00;99.90
26703;DHT22;14316;51.074;3.704;2023-04-03T00:37:56;5.00;99.90
26703;DHT22;14316;51.074;3.704;2023-04-03T00:40:24;5.10;99.90
26703;DHT22;14316;51.074;3.704;2023-04-03T00:42:56;5.10;99.90
26703;DHT22;14316;51.074;3.704;2023-04-03T00:45:30;5.00;99.90
26703;DHT22;14316;51.074;3.704;2023-04-03T00:47:56;5.00;99.90
26703;DHT22;14316;51.074;3.704;2023-04-03T00:50:26;5.00;99.90
26703;DHT22;14316;51.074;3.704;2023-04-03T00:52:53;5.00;99.90
26703;DHT22;14316;51.074;3.704;2023-04-03T00:55:19;5.00;99.90
26703;DHT22;14316;51.074;3.704;2023-04-03T00:57:46;4.90;99.90
26703;DHT22;14316;51.074;3.704;2023-04-03T01:00:15;4.90;99.90
26703;DHT22;14316;51.074;3.704;2023-04-03T01:02:42;4.80;99.90
26703;DHT22;14316;51.074;3.704;2023-04-03T01:05:08;4.90;99.90
26703;DHT22;14316;51.074;3.704;2023-04-03T01:07:35;4.90;99.90
26703;DHT22;14316;51.074;3.704;2023-04-03T01:10:07;4.80;99.90
26703;DHT22;14316;51.074;3.704;2023-04-03T01:12:35;4.80;99.90
26703;DHT22;14316;51.074;3.704;2023-04-03T01:15:09;4.80;99.90
26703;DHT22;14316;51.074;3.704;2023-04-03T01:17:47;4.80;99.90
26703;DHT22;14316;51.074;3.704;2023-04-03T01:25:31;4.80;99.90
26703;DHT22;14316;51.074;3.704;2023-04-03T01:27:57;4.80;99.90
26703;DHT22;14316;51.074;3.704;2023-04-03T01:30:28;4.80;99.90
26703;DHT22;14316;51.074;3.704;2023-04-03T01:32:55;4.80;99.90
26703;DHT22;14316;51.074;3.704;2023-04-03T01:35:21;4.70;99.90
26703;DHT22;14316;51.074;3.704;2023-04-03T01:37:47;4.70;99.90
26703;DHT22;14316;51.074;3.704;2023-04-03T01:40:14;4.70;99.90
26703;DHT22;14316;51.074;3.704;2023-04-03T01:42:39;4.70;99.90
26703;DHT22;14316;51.074;3.704;2023-04-03T01:45:06;4.70;99.90
26703;DHT22;14316;51.074;3.704;2023-04-03T01:47:32;4.70;99.90
26703;DHT22;14316;51.074;3.704;2023-04-03T01:49:58;4.70;99.90
26703;DHT22;14316;51.074;3.704;2023-04-03T01:52:24;4.70;99.90
26703;DHT22;14316;51.074;3.704;2023-04-03T01:54:50;4.70;99.90
26703;DHT22;14316;51.074;3.704;2023-04-03T01:57:16;4.70;99.90
26703;DHT22;14316;51.074;3.704;2023-04-03T01:59:42;4.70;99.90
26703;DHT22;14316;51.074;3.704;2023-04-03T02:02:08;4.80;99.90
26703;DHT22;14316;51.074;3.704;2023-04-03T02:04:35;4.80;99.90
26703;DHT22;14316;51.074;3.704;2023-04-03T02:07:00;4.70;99.90
26703;DHT22;14316;51.074;3.704;2023-04-03T02:09:26;4.70;99.90
26703;DHT22;14316;51.074;3.704;2023-04-03T02:11:53;4.70;99.90
26703;DHT22;14316;51.074;3.704;2023-04-03T02:14:19;4.70;99.90
26703;DHT22;14316;51.074;3.704;2023-04-03T02:16:46;4.70;99.90
26703;DHT22;14316;51.074;3.704;2023-04-03T02:19:12;4.70;99.90
26703;DHT22;14316;51.074;3.704;2023-04-03T02:21:38;4.60;99.90
26703;DHT22;14316;51.074;3.704;2023-04-03T02:24:04;4.60;99.90
26703;DHT22;14316;51.074;3.704;2023-04-03T02:26:30;4.60;99.90
26703;DHT22;14316;51.074;3.704;2023-04-03T02:28:57;4.60;99.90
26703;DHT22;14316;51.074;3.704;2023-04-03T02:31:23;4.60;99.90
26703;DHT22;14316;51.074;3.704;2023-04-03T02:33:49;4.60;99.90
26703;DHT22;14316;51.074;3.704;2023-04-03T02:36:15;4.60;99.90
26703;DHT22;14316;51.074;3.704;2023-04-03T02:38:41;4.60;99.90
26703;DHT22;14316;51.074;3.704;2023-04-03T02:41:10;4.60;99.90
26703;DHT22;14316;51.074;3.704;2023-04-03T02:43:37;4.60;99.90
26703;DHT22;14316;51.074;3.704;2023-04-03T02:46:03;4.60;99.90
26703;DHT22;14316;51.074;3.704;2023-04-03T02:48:29;4.60;99.90
26703;DHT22;14316;51.074;3.704;2023-04-03T02:50:55;4.70;99.90
26703;DHT22;14316;51.074;3.704;2023-04-03T02:53:21;4.70;99.90
26703;DHT22;14316;51.074;3.704;2023-04-03T02:55:48;4.70;99.90
26703;DHT22;14316;51.074;3.704;2023-04-03T02:58:14;4.70;99.90
26703;DHT22;14316;51.074;3.704;2023-04-03T03:00:40;4.70;99.90
26703;DHT22;14316;51.074;3.704;2023-04-03T03:03:07;4.70;99.90
26703;DHT22;14316;51.074;3.704;2023-04-03T03:05:33;4.70;99.90
26703;DHT22;14316;51.074;3.704;2023-04-03T03:07:59;4.70;99.90
26703;DHT22;14316;51.074;3.704;2023-04-03T03:10:25;4.70;99.90
26703;DHT22;14316;51.074;3.704;2023-04-03T03:12:51;4.70;99.90
26703;DHT22;14316;51.074;3.704;2023-04-03T03:15:17;4.70;99.90
26703;DHT22;14316;51.074;3.704;2023-04-03T03:17:45;4.70;99.90
26703;DHT22;14316;51.074;3.704;2023-04-03T03:20:11;4.70;99.90
26703;DHT22;14316;51.074;3.704;2023-04-03T03:22:39;4.60;99.90
26703;DHT22;14316;51.074;3.704;2023-04-03T03:25:05;4.60;99.90
26703;DHT22;14316;51.074;3.704;2023-04-03T03:27:31;4.70;99.90
26703;DHT22;14316;51.074;3.704;2023-04-03T03:29:58;4.70;99.90
26703;DHT22;14316;51.074;3.704;2023-04-03T03:32:23;4.70;99.90
26703;DHT22;14316;51.074;3.704;2023-04-03T03:34:49;4.70;99.90
26703;DHT22;14316;51.074;3.704;2023-04-03T03:37:15;4.70;99.90
26703;DHT22;14316;51.074;3.704;2023-04-03T03:39:41;4.60;99.90
26703;DHT22;14316;51.074;3.704;2023-04-03T03:42:08;4.60;99.90
26703;DHT22;14316;51.074;3.704;2023-04-03T03:44:33;4.50;99.90
26703;DHT22;14316;51.074;3.704;2023-04-03T03:47:00;4.50;99.90
26703;DHT22;14316;51.074;3.704;2023-04-03T03:49:26;4.60;99.90
26703;DHT22;14316;51.074;3.704;2023-04-03T03:51:52;4.50;99.90
26703;DHT22;14316;51.074;3.704;2023-04-03T03:54:18;4.60;99.90
26703;DHT22;14316;51.074;3.704;2023-04-03T03:56:44;4.60;99.90
26703;DHT22;14316;51.074;3.704;2023-04-03T03:59:12;4.50;99.90
26703;DHT22;14316;51.074;3.704;2023-04-03T04:01:38;4.50;99.90
26703;DHT22;14316;51.074;3.704;2023-04-03T04:04:04;4.60;99.90
26703;DHT22;14316;51.074;3.704;2023-04-03T04:06:30;4.60;99.90
26703;DHT22;14316;51.074;3.704;2023-04-03T04:08:56;4.50;99.90
26703;DHT22;14316;51.074;3.704;2023-04-03T04:11:22;4.50;99.90
26703;DHT22;14316;51.074;3.704;2023-04-03T04:13:48;4.50;99.90
26703;DHT22;14316;51.074;3.704;2023-04-03T04:16:14;4.40;99.90
26703;DHT22;14316;51.074;3.704;2023-04-03T04:18:40;4.40;99.90
26703;DHT22;14316;51.074;3.704;2023-04-03T04:21:06;4.30;99.90
26703;DHT22;14316;51.074;3.704;2023-04-03T04:23:32;4.30;99.90
26703;DHT22;14316;51.074;3.704;2023-04-03T04:25:58;4.30;99.90
26703;DHT22;14316;51.074;3.704;2023-04-03T04:28:24;4.30;99.90
26703;DHT22;14316;51.074;3.704;2023-04-03T04:30:50;4.30;99.90
26703;DHT22;14316;51.074;3.704;2023-04-03T04:33:16;4.30;99.90
26703;DHT22;14316;51.074;3.704;2023-04-03T04:35:43;4.30;99.90
26703;DHT22;14316;51.074;3.704;2023-04-03T04:38:09;4.20;99.90
26703;DHT22;14316;51.074;3.704;2023-04-03T04:40:35;4.30;99.90
26703;DHT22;14316;51.074;3.704;2023-04-03T04:43:01;4.30;99.90
26703;DHT22;14316;51.074;3.704;2023-04-03T04:45:27;4.20;99.90
26703;DHT22;14316;51.074;3.704;2023-04-03T04:47:55;4.20;99.90
26703;DHT22;14316;51.074;3.704;2023-04-03T04:50:21;4.20;99.90
26703;DHT22;14316;51.074;3.704;2023-04-03T04:52:47;4.20;99.90
26703;DHT22;14316;51.074;3.704;2023-04-03T04:55:13;4.30;99.90
26703;DHT22;14316;51.074;3.704;2023-04-03T04:57:39;4.20;99.90
26703;DHT22;14316;51.074;3.704;2023-04-03T05:00:06;4.20;99.90
26703;DHT22;14316;51.074;3.704;2023-04-03T05:02:32;4.20;99.90
26703;DHT22;14316;51.074;3.704;2023-04-03T05:04:57;4.20;99.90
26703;DHT22;14316;51.074;3.704;2023-04-03T05:07:24;4.20;99.90
26703;DHT22;14316;51.074;3.704;2023-04-03T05:09:50;4.10;99.90
26703;DHT22;14316;51.074;3.704;2023-04-03T05:12:16;4.10;99.90
26703;DHT22;14316;51.074;3.704;2023-04-03T05:14:42;4.10;99.90
26703;DHT22;14316;51.074;3.704;2023-04-03T05:17:08;4.10;99.90
26703;DHT22;14316;51.074;3.704;2023-04-03T05:19:34;4.10;99.90
26703;DHT22;14316;51.074;3.704;2023-04-03T05:22:00;4.10;99.90
26703;DHT22;14316;51.074;3.704;2023-04-03T05:24:26;4.10;99.90
26703;DHT22;14316;51.074;3.704;2023-04-03T05:26:52;4.10;99.90
26703;DHT22;14316;51.074;3.704;2023-04-03T05:29:18;4.20;99.90
26703;DHT22;14316;51.074;3.704;2023-04-03T05:31:44;4.20;99.90
26703;DHT22;14316;51.074;3.704;2023-04-03T05:34:11;4.20;99.90
26703;DHT22;14316;51.074;3.704;2023-04-03T05:36:37;4.20;99.90
26703;DHT22;14316;51.074;3.704;2023-04-03T05:39:03;4.20;99.90
26703;DHT22;14316;51.074;3.704;2023-04-03T05:41:29;4.20;99.90
26703;DHT22;14316;51.074;3.704;2023-04-03T05:43:55;4.10;99.90
26703;DHT22;14316;51.074;3.704;2023-04-03T05:46:21;4.10;99.90
26703;DHT22;14316;51.074;3.704;2023-04-03T05:48:47;4.20;99.90
26703;DHT22;14316;51.074;3.704;2023-04-03T05:51:23;4.30;99.90
26703;DHT22;14316;51.074;3.704;2023-04-03T05:54:00;4.30;99.90
26703;DHT22;14316;51.074;3.704;2023-04-03T05:56:28;4.30;99.90
26703;DHT22;14316;51.074;3.704;2023-04-03T05:58:54;4.30;99.90
26703;DHT22;14316;51.074;3.704;2023-04-03T06:01:20;4.40;99.90
26703;DHT22;14316;51.074;3.704;2023-04-03T06:03:46;4.40;99.90
26703;DHT22;14316;51.074;3.704;2023-04-03T06:06:13;4.40;99.90
26703;DHT22;14316;51.074;3.704;2023-04-03T06:08:40;4.50;99.90
26703;DHT22;14316;51.074;3.704;2023-04-03T06:11:06;4.60;99.90
26703;DHT22;14316;51.074;3.704;2023-04-03T06:13:34;4.70;99.90
26703;DHT22;14316;51.074;3.704;2023-04-03T06:16:01;4.90;99.90
26703;DHT22;14316;51.074;3.704;2023-04-03T06:18:28;4.90;99.90
26703;DHT22;14316;51.074;3.704;2023-04-03T06:20:54;5.00;99.90
26703;DHT22;14316;51.074;3.704;2023-04-03T06:23:20;5.10;99.90
26703;DHT22;14316;51.074;3.704;2023-04-03T06:25:46;5.10;99.90
26703;DHT22;14316;51.074;3.704;2023-04-03T06:28:12;5.30;99.90
26703;DHT22;14316;51.074;3.704;2023-04-03T06:30:38;5.40;99.90
26703;DHT22;14316;51.074;3.704;2023-04-03T06:33:04;5.50;99.90
26703;DHT22;14316;51.074;3.704;2023-04-03T06:35:30;5.50;99.90
26703;DHT22;14316;51.074;3.704;2023-04-03T06:37:57;5.50;99.90
26703;DHT22;14316;51.074;3.704;2023-04-03T06:40:24;5.60;99.90
26703;DHT22;14316;51.074;3.704;2023-04-03T06:42:51;5.50;99.90
26703;DHT22;14316;51.074;3.704;2023-04-03T06:45:17;5.60;99.90
26703;DHT22;14316;51.074;3.704;2023-04-03T06:47:43;5.60;99.90
26703;DHT22;14316;51.074;3.704;2023-04-03T06:50:11;5.80;99.90
26703;DHT22;14316;51.074;3.704;2023-04-03T06:52:39;5.90;99.90
26703;DHT22;14316;51.074;3.704;2023-04-03T06:55:06;5.90;99.90
26703;DHT22;14316;51.074;3.704;2023-04-03T06:57:33;6.00;99.90
26703;DHT22;14316;51.074;3.704;2023-04-03T06:59:59;6.10;99.90
26703;DHT22;14316;51.074;3.704;2023-04-03T07:02:25;6.30;99.90
26703;DHT22;14316;51.074;3.704;2023-04-03T07:04:51;6.50;99.90
26703;DHT22;14316;51.074;3.704;2023-04-03T07:07:17;6.70;99.90
26703;DHT22;14316;51.074;3.704;2023-04-03T07:09:44;6.90;99.90
26703;DHT22;14316;51.074;3.704;2023-04-03T07:12:10;7.00;99.90
26703;DHT22;14316;51.074;3.704;2023-04-03T07:14:36;7.20;99.90
26703;DHT22;14316;51.074;3.704;2023-04-03T07:17:02;7.40;99.90
26703;DHT22;14316;51.074;3.704;2023-04-03T07:19:28;7.30;99.90
26703;DHT22;14316;51.074;3.704;2023-04-03T07:21:54;7.10;99.90
26703;DHT22;14316;51.074;3.704;2023-04-03T07:24:21;7.10;99.90
26703;DHT22;14316;51.074;3.704;2023-04-03T07:26:51;7.20;99.90
26703;DHT22;14316;51.074;3.704;2023-04-03T07:29:18;7.20;99.90
26703;DHT22;14316;51.074;3.704;2023-04-03T07:31:44;7.20;99.90
26703;DHT22;14316;51.074;3.704;2023-04-03T07:34:11;7.20;99.90
26703;DHT22;14316;51.074;3.704;2023-04-03T07:36:37;7.30;99.90
26703;DHT22;14316;51.074;3.704;2023-04-03T07:39:03;7.50;99.90
26703;DHT22;14316;51.074;3.704;2023-04-03T07:41:29;7.60;99.90
26703;DHT22;14316;51.074;3.704;2023-04-03T07:43:56;7.70;99.90
26703;DHT22;14316;51.074;3.704;2023-04-03T07:46:22;7.70;99.90
26703;DHT22;14316;51.074;3.704;2023-04-03T07:48:48;7.90;99.90
26703;DHT22;14316;51.074;3.704;2023-04-03T07:51:17;8.00;99.90
26703;DHT22;14316;51.074;3.704;2023-04-03T07:53:51;7.90;99.90
26703;DHT22;14316;51.074;3.704;2023-04-03T07:56:20;7.90;99.90
26703;DHT22;14316;51.074;3.704;2023-04-03T07:58:50;8.00;99.90
26703;DHT22;14316;51.074;3.704;2023-04-03T08:01:16;8.10;99.90
26703;DHT22;14316;51.074;3.704;2023-04-03T08:03:42;8.20;99.90
26703;DHT22;14316;51.074;3.704;2023-04-03T08:06:08;8.40;99.90
26703;DHT22;14316;51.074;3.704;2023-04-03T08:08:35;8.40;99.90
26703;DHT22;14316;51.074;3.704;2023-04-03T08:11:02;8.40;99.90
26703;DHT22;14316;51.074;3.704;2023-04-03T08:13:29;8.50;99.90
26703;DHT22;14316;51.074;3.704;2023-04-03T08:15:56;8.50;99.90
26703;DHT22;14316;51.074;3.704;2023-04-03T08:18:23;8.70;99.90
26703;DHT22;14316;51.074;3.704;2023-04-03T08:20:51;8.80;99.90
26703;DHT22;14316;51.074;3.704;2023-04-03T08:23:18;8.90;99.90
26703;DHT22;14316;51.074;3.704;2023-04-03T08:25:44;9.10;99.90
26703;DHT22;14316;51.074;3.704;2023-04-03T08:28:11;9.10;99.90
26703;DHT22;14316;51.074;3.704;2023-04-03T08:30:41;9.20;99.90
26703;DHT22;14316;51.074;3.704;2023-04-03T08:33:08;9.30;99.90
26703;DHT22;14316;51.074;3.704;2023-04-03T08:35:39;9.50;99.90
26703;DHT22;14316;51.074;3.704;2023-04-03T08:38:06;9.60;99.90
26703;DHT22;14316;51.074;3.704;2023-04-03T08:40:32;9.80;99.90
26703;DHT22;14316;51.074;3.704;2023-04-03T08:48:17;9.80;99.90
26703;DHT22;14316;51.074;3.704;2023-04-03T08:50:50;9.90;99.90
26703;DHT22;14316;51.074;3.704;2023-04-03T08:53:21;10.10;99.90
26703;DHT22;14316;51.074;3.704;2023-04-03T08:55:51;10.10;99.90
26703;DHT22;14316;51.074;3.704;2023-04-03T08:58:26;10.00;99.90
26703;DHT22;14316;51.074;3.704;2023-04-03T09:03:40;10.20;99.90
26703;DHT22;14316;51.074;3.704;2023-04-03T09:06:20;10.50;99.90
26703;DHT22;14316;51.074;3.704;2023-04-03T09:17:21;11.40;99.90
26703;DHT22;14316;51.074;3.704;2023-04-03T09:22:25;12.30;99.90
26703;DHT22;14316;51.074;3.704;2023-04-03T09:25:02;12.60;99.90
26703;DHT22;14316;51.074;3.704;2023-04-03T09:27:31;12.80;99.90
26703;DHT22;14316;51.074;3.704;2023-04-03T09:29:57;12.30;99.90
26703;DHT22;14316;51.074;3.704;2023-04-03T09:32:31;12.20;99.90
26703;DHT22;14316;51.074;3.704;2023-04-03T09:35:02;11.90;99.90
26703;DHT22;14316;51.074;3.704;2023-04-03T09:37:46;11.90;99.90
26703;DHT22;14316;51.074;3.704;2023-04-03T09:40:29;12.10;99.90
26703;DHT22;14316;51.074;3.704;2023-04-03T09:42:58;12.60;99.90
26703;DHT22;14316;51.074;3.704;2023-04-03T09:45:25;12.80;99.90
26703;DHT22;14316;51.074;3.704;2023-04-03T09:48:16;12.60;99.90
26703;DHT22;14316;51.074;3.704;2023-04-03T09:51:01;12.80;99.90
26703;DHT22;14316;51.074;3.704;2023-04-03T09:53:37;13.20;99.90
26703;DHT22;14316;51.074;3.704;2023-04-03T09:56:27;13.30;99.90
26703;DHT22;14316;51.074;3.704;2023-04-03T10:04:10;12.80;99.90
26703;DHT22;14316;51.074;3.704;2023-04-03T10:06:41;12.70;99.90
26703;DHT22;14316;51.074;3.704;2023-04-03T10:09:31;12.90;99.90
26703;DHT22;14316;51.074;3.704;2023-04-03T10:12:11;12.90;99.90
26703;DHT22;14316;51.074;3.704;2023-04-03T10:14:54;13.30;99.90
26703;DHT22;14316;51.074;3.704;2023-04-03T10:23:13;13.40;99.90
26703;DHT22;14316;51.074;3.704;2023-04-03T10:31:21;13.30;99.90
26703;DHT22;14316;51.074;3.704;2023-04-03T10:34:00;13.70;99.90
26703;DHT22;14316;51.074;3.704;2023-04-03T10:42:00;13.80;99.90
26703;DHT22;14316;51.074;3.704;2023-04-03T10:44:53;14.20;99.90
26703;DHT22;14316;51.074;3.704;2023-04-03T10:55:54;15.10;99.90
26703;DHT22;14316;51.074;3.704;2023-04-03T11:01:00;16.20;99.90
26703;DHT22;14316;51.074;3.704;2023-04-03T11:03:42;15.80;99.90
26703;DHT22;14316;51.074;3.704;2023-04-03T11:06:12;15.50;99.90
26703;DHT22;14316;51.074;3.704;2023-04-03T11:09:00;15.60;99.90
26703;DHT22;14316;51.074;3.704;2023-04-03T11:11:34;16.60;99.90
26703;DHT22;14316;51.074;3.704;2023-04-03T11:16:45;19.60;99.90
26703;DHT22;14316;51.074;3.704;2023-04-03T11:19:21;21.40;99.90
26703;DHT22;14316;51.074;3.704;2023-04-03T11:27:37;21.50;84.10
26703;DHT22;14316;51.074;3.704;2023-04-03T11:30:08;22.40;84.00
26703;DHT22;14316;51.074;3.704;2023-04-03T11:35:21;23.50;77.00
26703;DHT22;14316;51.074;3.704;2023-04-03T11:37:51;25.10;75.30
26703;DHT22;14316;51.074;3.704;2023-04-03T11:40:31;26.70;64.50
26703;DHT22;14316;51.074;3.704;2023-04-03T11:48:01;25.70;55.70
26703;DHT22;14316;51.074;3.704;2023-04-03T11:50:42;26.50;61.10
26703;DHT22;14316;51.074;3.704;2023-04-03T12:00:49;21.60;56.90
26703;DHT22;14316;51.074;3.704;2023-04-03T12:24:36;25.80;53.00
26703;DHT22;14316;51.074;3.704;2023-04-03T12:27:25;26.70;51.20
26703;DHT22;14316;51.074;3.704;2023-04-03T12:35:44;25.10;50.40
26703;DHT22;14316;51.074;3.704;2023-04-03T12:46:37;26.30;47.20
26703;DHT22;14316;51.074;3.704;2023-04-03T12:49:35;25.30;51.90
26703;DHT22;14316;51.074;3.704;2023-04-03T12:52:19;25.70;51.40
26703;DHT22;14316;51.074;3.704;2023-04-03T12:54:48;27.90;47.80
26703;DHT22;14316;51.074;3.704;2023-04-03T12:57:24;28.10;49.20
26703;DHT22;14316;51.074;3.704;2023-04-03T12:59:50;28.60;43.70
26703;DHT22;14316;51.074;3.704;2023-04-03T13:04:53;29.90;46.50
26703;DHT22;14316;51.074;3.704;2023-04-03T13:07:24;27.60;43.50
26703;DHT22;14316;51.074;3.704;2023-04-03T13:10:09;29.50;47.60
26703;DHT22;14316;51.074;3.704;2023-04-03T13:12:55;31.10;42.50
26703;DHT22;14316;51.074;3.704;2023-04-03T13:15:30;30.00;46.20
26703;DHT22;14316;51.074;3.704;2023-04-03T13:18:05;32.40;44.50
26703;DHT22;14316;51.074;3.704;2023-04-03T13:20:48;33.80;40.20
26703;DHT22;14316;51.074;3.704;2023-04-03T13:23:17;35.00;40.90
26703;DHT22;14316;51.074;3.704;2023-04-03T13:25:46;36.50;39.00
26703;DHT22;14316;51.074;3.704;2023-04-03T13:28:24;32.80;34.30
26703;DHT22;14316;51.074;3.704;2023-04-03T13:34:06;36.20;37.50
26703;DHT22;14316;51.074;3.704;2023-04-03T13:36:43;33.80;33.00
26703;DHT22;14316;51.074;3.704;2023-04-03T13:41:39;35.20;38.10
26703;DHT22;14316;51.074;3.704;2023-04-03T13:44:27;35.90;34.60
26703;DHT22;14316;51.074;3.704;2023-04-03T13:47:13;37.20;38.20
26703;DHT22;14316;51.074;3.704;2023-04-03T13:49:46;38.20;34.10
26703;DHT22;14316;51.074;3.704;2023-04-03T13:52:27;39.10;30.10
26703;DHT22;14316;51.074;3.704;2023-04-03T13:55:00;35.70;30.40
26703;DHT22;14316;51.074;3.704;2023-04-03T13:57:27;36.10;29.50
26703;DHT22;14316;51.074;3.704;2023-04-03T13:59:53;37.60;29.90
26703;DHT22;14316;51.074;3.704;2023-04-03T14:02:32;38.80;31.70
26703;DHT22;14316;51.074;3.704;2023-04-03T14:05:00;39.80;33.80
26703;DHT22;14316;51.074;3.704;2023-04-03T14:07:29;38.80;29.80
26703;DHT22;14316;51.074;3.704;2023-04-03T14:09:57;36.90;28.50
26703;DHT22;14316;51.074;3.704;2023-04-03T14:12:37;32.30;29.70
26703;DHT22;14316;51.074;3.704;2023-04-03T14:15:27;31.70;33.70
26703;DHT22;14316;51.074;3.704;2023-04-03T14:17:54;34.00;32.90
26703;DHT22;14316;51.074;3.704;2023-04-03T14:20:23;32.30;28.40
26703;DHT22;14316;51.074;3.704;2023-04-03T14:22:50;31.50;32.70
26703;DHT22;14316;51.074;3.704;2023-04-03T14:25:17;32.90;34.20
26703;DHT22;14316;51.074;3.704;2023-04-03T14:27:47;33.20;32.90
26703;DHT22;14316;51.074;3.704;2023-04-03T14:30:20;34.50;28.90
26703;DHT22;14316;51.074;3.704;2023-04-03T14:32:47;32.90;28.10
26703;DHT22;14316;51.074;3.704;2023-04-03T14:35:14;33.80;33.70
26703;DHT22;14316;51.074;3.704;2023-04-03T14:37:41;35.50;29.60
26703;DHT22;14316;51.074;3.704;2023-04-03T14:40:09;34.60;27.70
26703;DHT22;14316;51.074;3.704;2023-04-03T14:42:37;31.80;33.10
26703;DHT22;14316;51.074;3.704;2023-04-03T14:45:07;31.00;29.80
26703;DHT22;14316;51.074;3.704;2023-04-03T14:47:39;31.50;32.40
26703;DHT22;14316;51.074;3.704;2023-04-03T14:50:06;33.50;32.20
26703;DHT22;14316;51.074;3.704;2023-04-03T14:52:35;34.90;34.10
26703;DHT22;14316;51.074;3.704;2023-04-03T14:55:04;34.40;26.60
26703;DHT22;14316;51.074;3.704;2023-04-03T14:57:31;35.50;30.60
26703;DHT22;14316;51.074;3.704;2023-04-03T14:59:58;36.50;31.00
26703;DHT22;14316;51.074;3.704;2023-04-03T15:02:27;37.70;28.40
26703;DHT22;14316;51.074;3.704;2023-04-03T15:04:55;38.50;29.20
26703;DHT22;14316;51.074;3.704;2023-04-03T15:07:22;38.60;27.50
26703;DHT22;14316;51.074;3.704;2023-04-03T15:09:49;34.60;25.80
26703;DHT22;14316;51.074;3.704;2023-04-03T15:12:16;31.40;28.30
26703;DHT22;14316;51.074;3.704;2023-04-03T15:14:41;29.00;28.80
26703;DHT22;14316;51.074;3.704;2023-04-03T15:17:16;28.10;31.30
26703;DHT22;14316;51.074;3.704;2023-04-03T15:19:43;26.90;31.00
26703;DHT22;14316;51.074;3.704;2023-04-03T15:22:14;26.40;29.80
26703;DHT22;14316;51.074;3.704;2023-04-03T15:24:40;26.30;32.50
26703;DHT22;14316;51.074;3.704;2023-04-03T15:27:06;27.60;33.20
26703;DHT22;14316;51.074;3.704;2023-04-03T15:29:33;29.00;30.60
26703;DHT22;14316;51.074;3.704;2023-04-03T15:31:59;30.80;31.80
26703;DHT22;14316;51.074;3.704;2023-04-03T15:34:25;32.90;30.80
26703;DHT22;14316;51.074;3.704;2023-04-03T15:36:51;32.30;28.40
26703;DHT22;14316;51.074;3.704;2023-04-03T15:39:20;32.30;29.90
26703;DHT22;14316;51.074;3.704;2023-04-03T15:41:49;31.10;30.20
26703;DHT22;14316;51.074;3.704;2023-04-03T15:44:19;32.40;31.30
26703;DHT22;14316;51.074;3.704;2023-04-03T15:46:47;33.80;30.00
26703;DHT22;14316;51.074;3.704;2023-04-03T15:49:14;34.00;29.00
26703;DHT22;14316;51.074;3.704;2023-04-03T15:51:41;32.00;27.20
26703;DHT22;14316;51.074;3.704;2023-04-03T15:54:07;29.40;29.70
26703;DHT22;14316;51.074;3.704;2023-04-03T15:56:33;28.10;34.40
26703;DHT22;14316;51.074;3.704;2023-04-03T15:59:00;29.70;30.10
26703;DHT22;14316;51.074;3.704;2023-04-03T16:01:29;31.70;30.20
26703;DHT22;14316;51.074;3.704;2023-04-03T16:03:58;30.90;28.60
26703;DHT22;14316;51.074;3.704;2023-04-03T16:06:27;30.80;30.70
26703;DHT22;14316;51.074;3.704;2023-04-03T16:08:56;29.70;28.40
26703;DHT22;14316;51.074;3.704;2023-04-03T16:11:25;27.40;31.10
26703;DHT22;14316;51.074;3.704;2023-04-03T16:13:52;28.50;31.70
26703;DHT22;14316;51.074;3.704;2023-04-03T16:16:18;30.00;30.90
26703;DHT22;14316;51.074;3.704;2023-04-03T16:18:45;30.20;29.10
26703;DHT22;14316;51.074;3.704;2023-04-03T16:21:13;29.70;29.90
26703;DHT22;14316;51.074;3.704;2023-04-03T16:23:40;29.80;30.80
26703;DHT22;14316;51.074;3.704;2023-04-03T16:26:07;27.40;29.10
26703;DHT22;14316;51.074;3.704;2023-04-03T16:28:33;26.50;31.60
26703;DHT22;14316;51.074;3.704;2023-04-03T16:31:00;25.30;31.90
26703;DHT22;14316;51.074;3.704;2023-04-03T16:33:27;24.60;34.10
26703;DHT22;14316;51.074;3.704;2023-04-03T16:35:53;24.80;33.00
26703;DHT22;14316;51.074;3.704;2023-04-03T16:38:19;25.20;34.80
26703;DHT22;14316;51.074;3.704;2023-04-03T16:40:47;26.40;32.00
26703;DHT22;14316;51.074;3.704;2023-04-03T16:43:15;28.10;31.10
26703;DHT22;14316;51.074;3.704;2023-04-03T16:45:42;29.40;30.40
26703;DHT22;14316;51.074;3.704;2023-04-03T16:48:08;30.10;32.50
26703;DHT22;14316;51.074;3.704;2023-04-03T16:50:34;30.80;31.50
26703;DHT22;14316;51.074;3.704;2023-04-03T16:53:00;30.80;29.80
26703;DHT22;14316;51.074;3.704;2023-04-03T16:55:28;30.50;29.50
26703;DHT22;14316;51.074;3.704;2023-04-03T16:57:54;29.90;29.70
26703;DHT22;14316;51.074;3.704;2023-04-03T17:00:21;29.70;30.10
26703;DHT22;14316;51.074;3.704;2023-04-03T17:02:47;29.50;28.30
26703;DHT22;14316;51.074;3.704;2023-04-03T17:05:13;29.50;30.00
26703;DHT22;14316;51.074;3.704;2023-04-03T17:07:39;27.60;29.50
26703;DHT22;14316;51.074;3.704;2023-04-03T17:10:06;27.40;31.20
26703;DHT22;14316;51.074;3.704;2023-04-03T17:12:32;27.10;29.90
26703;DHT22;14316;51.074;3.704;2023-04-03T17:14:58;25.20;32.00
26703;DHT22;14316;51.074;3.704;2023-04-03T17:17:24;22.90;37.50
26703;DHT22;14316;51.074;3.704;2023-04-03T17:19:51;21.50;36.70
26703;DHT22;14316;51.074;3.704;2023-04-03T17:22:19;20.00;36.70
26703;DHT22;14316;51.074;3.704;2023-04-03T17:24:46;18.50;40.20
26703;DHT22;14316;51.074;3.704;2023-04-03T17:27:12;17.20;42.80
26703;DHT22;14316;51.074;3.704;2023-04-03T17:29:38;16.50;45.20
26703;DHT22;14316;51.074;3.704;2023-04-03T17:32:04;15.70;45.90
26703;DHT22;14316;51.074;3.704;2023-04-03T17:34:30;15.10;46.20
26703;DHT22;14316;51.074;3.704;2023-04-03T17:36:58;14.50;48.50
26703;DHT22;14316;51.074;3.704;2023-04-03T17:39:24;14.40;49.00
26703;DHT22;14316;51.074;3.704;2023-04-03T17:41:50;14.10;51.70
26703;DHT22;14316;51.074;3.704;2023-04-03T17:44:19;13.80;49.30
26703;DHT22;14316;51.074;3.704;2023-04-03T17:46:45;13.60;51.60
26703;DHT22;14316;51.074;3.704;2023-04-03T17:49:12;13.20;52.00
26703;DHT22;14316;51.074;3.704;2023-04-03T17:51:40;12.90;51.70
26703;DHT22;14316;51.074;3.704;2023-04-03T17:54:07;12.60;53.10